Time;durP1;ratioP1;P1;durP2;ratioP2;P2;SDS_P1;SDS_P2;PMS_P1;PMS_P2;Temp;Humidity;BMP_temperature;BMP_pressure;BME280_temperature;BME280_humidity;BME280_pressure;Samples;Min_cycle;Max_cycle;Signal;HPM_P1;HPM_P2
2024/01/26 00:01:55;;;;;;;21.83;8.27;;;8.30;99.90;;;;;;5075141;28;20523;-55
2024/01/26 00:04:21;;;;;;;22.40;9.07;;;8.30;99.90;;;;;;5075047;28;20048;-55
2024/01/26 00:06:47;;;;;;;25.10;9.30;;;8.30;99.90;;;;;;5074864;28;20044;-55
2024/01/26 00:09:15;;;;;;;22.45;9.23;;;8.30;99.90;;;;;;5075007;28;20044;-54
2024/01/26 00:11:42;;;;;;;24.63;8.98;;;8.30;99.90;;;;;;5074592;28;20080;-54
2024/01/26 00:14:08;;;;;;;24.45;9.25;;;8.40;99.90;;;;;;5074907;28;20041;-52
2024/01/26 00:16:35;;;;;;;29.08;10.60;;;8.40;99.90;;;;;;5074848;28;20571;-55
2024/01/26 00:19:01;;;;;;;24.27;9.23;;;8.40;99.90;;;;;;5074812;28;20049;-54
2024/01/26 00:21:27;;;;;;;24.00;9.60;;;8.40;99.90;;;;;;5074608;28;20063;-55
2024/01/26 00:23:52;;;;;;;28.80;11.03;;;8.40;99.90;;;;;;5074744;28;20109;-54
2024/01/26 00:26:18;;;;;;;26.40;10.10;;;8.50;99.90;;;;;;5074500;28;20476;-55
2024/01/26 00:28:44;;;;;;;26.90;10.23;;;8.50;99.90;;;;;;5074431;28;20146;-53
2024/01/26 00:31:17;;;;;;;24.80;9.20;;;8.50;99.90;;;;;;5074549;28;20049;-54
2024/01/26 00:33:43;;;;;;;25.33;10.25;;;8.50;99.90;;;;;;5074526;28;20036;-54
2024/01/26 00:36:09;;;;;;;25.20;9.48;;;8.50;99.90;;;;;;5074325;28;20048;-55
2024/01/26 00:38:35;;;;;;;27.55;10.25;;;8.60;99.90;;;;;;5074235;28;20037;-53
2024/01/26 00:41:00;;;;;;;24.97;9.83;;;8.60;99.90;;;;;;5074468;28;20098;-54
2024/01/26 00:43:26;;;;;;;29.57;11.03;;;8.60;99.90;;;;;;5074331;28;20391;-54
2024/01/26 00:45:52;;;;;;;28.57;11.67;;;8.60;99.90;;;;;;5074327;28;20040;-55
2024/01/26 00:48:17;;;;;;;29.67;12.20;;;8.60;99.90;;;;;;5073798;28;20107;-55
2024/01/26 00:50:43;;;;;;;30.63;11.10;;;8.60;99.90;;;;;;5074277;28;20043;-55
2024/01/26 00:53:09;;;;;;;29.73;10.73;;;8.60;99.90;;;;;;5074087;28;20449;-55
2024/01/26 00:55:34;;;;;;;27.23;10.97;;;8.60;99.90;;;;;;5073830;28;20047;-54
2024/01/26 00:58:00;;;;;;;29.23;11.47;;;8.60;99.90;;;;;;5073901;28;20044;-54
2024/01/26 01:00:26;;;;;;;29.57;12.00;;;8.60;99.90;;;;;;5074040;28;20087;-54
2024/01/26 01:02:53;;;;;;;27.97;10.70;;;8.60;99.90;;;;;;5073009;28;20491;-55
2024/01/26 01:05:19;;;;;;;32.47;11.70;;;8.70;99.90;;;;;;5073909;28;20040;-54
2024/01/26 01:07:45;;;;;;;26.80;11.32;;;8.70;99.90;;;;;;5072766;28;20113;-54
2024/01/26 01:10:11;;;;;;;29.55;11.35;;;8.70;99.90;;;;;;5073839;28;20044;-54
2024/01/26 01:12:41;;;;;;;35.47;12.53;;;8.70;99.90;;;;;;5073859;28;20452;-55
2024/01/26 01:15:11;;;;;;;33.28;11.00;;;8.80;99.90;;;;;;5073846;28;20049;-54
2024/01/26 01:17:44;;;;;;;25.80;10.02;;;8.80;99.90;;;;;;5073820;28;20123;-55
2024/01/26 01:20:11;;;;;;;26.50;11.18;;;8.90;99.90;;;;;;5073741;28;20123;-54
2024/01/26 01:22:38;;;;;;;26.95;10.32;;;8.90;99.90;;;;;;5073616;28;20174;-55
2024/01/26 01:25:05;;;;;;;28.30;11.20;;;8.90;99.90;;;;;;5073792;28;20051;-55
2024/01/26 01:27:33;;;;;;;32.55;11.68;;;8.90;99.90;;;;;;5073566;28;20395;-55
2024/01/26 01:29:59;;;;;;;30.30;11.85;;;9.00;99.90;;;;;;5073692;28;20361;-55
2024/01/26 01:32:25;;;;;;;33.33;11.38;;;9.00;99.90;;;;;;5073597;28;20056;-55
2024/01/26 01:34:52;;;;;;;30.30;12.70;;;9.00;99.90;;;;;;5073675;28;20551;-55
2024/01/26 01:37:18;;;;;;;30.92;11.23;;;9.00;99.90;;;;;;5073361;28;20127;-55
2024/01/26 01:39:43;;;;;;;28.57;10.63;;;9.10;99.90;;;;;;5073562;28;20090;-55
2024/01/26 01:42:14;;;;;;;24.63;10.13;;;9.10;99.90;;;;;;5073527;28;20048;-55
2024/01/26 01:44:43;;;;;;;28.90;11.40;;;9.10;99.90;;;;;;5073960;28;20056;-55
2024/01/26 01:47:10;;;;;;;25.13;10.30;;;9.10;99.90;;;;;;5073287;28;20054;-55
2024/01/26 01:49:39;;;;;;;26.73;10.85;;;9.10;99.90;;;;;;5073375;28;20131;-54
2024/01/26 01:52:08;;;;;;;23.75;10.30;;;9.10;99.90;;;;;;5072226;28;20399;-54
2024/01/26 01:54:34;;;;;;;21.80;9.32;;;9.10;99.90;;;;;;5072516;28;20050;-55
2024/01/26 01:57:04;;;;;;;21.98;8.55;;;9.10;99.90;;;;;;5073391;28;20048;-56
2024/01/26 01:59:33;;;;;;;25.17;10.10;;;9.20;99.90;;;;;;5072086;28;20044;-54
2024/01/26 02:02:00;;;;;;;19.95;8.82;;;9.20;99.90;;;;;;5073340;28;20095;-55
2024/01/26 02:04:26;;;;;;;25.30;9.48;;;9.20;99.90;;;;;;5073191;28;20056;-55
2024/01/26 02:06:59;;;;;;;22.23;9.70;;;9.20;99.90;;;;;;5073247;28;20048;-56
2024/01/26 02:09:25;;;;;;;23.25;9.32;;;9.30;99.90;;;;;;5073503;28;20040;-55
2024/01/26 02:11:51;;;;;;;20.38;9.18;;;9.30;99.90;;;;;;5072352;28;20049;-55
2024/01/26 02:14:17;;;;;;;21.95;9.00;;;9.30;99.90;;;;;;5073173;28;20049;-54
2024/01/26 02:16:56;;;;;;;19.27;9.45;;;9.30;99.90;;;;;;5073702;28;20091;-55
2024/01/26 02:19:23;;;;;;;19.95;8.95;;;9.30;99.90;;;;;;5077103;28;20051;-55
2024/01/26 02:21:49;;;;;;;21.88;10.05;;;9.30;99.90;;;;;;5077027;28;20476;-55
2024/01/26 02:24:15;;;;;;;21.27;9.82;;;9.30;99.90;;;;;;5076945;28;20045;-54
2024/01/26 02:26:41;;;;;;;21.02;9.82;;;9.40;99.90;;;;;;5076710;28;20041;-55
2024/01/26 02:29:07;;;;;;;23.63;10.27;;;9.40;99.90;;;;;;5076654;28;20049;-55
2024/01/26 02:31:33;;;;;;;22.02;10.55;;;9.40;99.90;;;;;;5076600;28;20135;-53
2024/01/26 02:33:59;;;;;;;20.33;9.97;;;9.40;99.90;;;;;;5077077;28;20044;-55
2024/01/26 02:36:27;;;;;;;21.70;9.83;;;9.40;99.90;;;;;;5076789;28;20055;-55
2024/01/26 02:38:53;;;;;;;22.73;10.15;;;9.40;99.90;;;;;;5076628;28;20512;-55
2024/01/26 02:41:18;;;;;;;20.30;9.40;;;9.40;99.90;;;;;;5076733;28;20127;-55
2024/01/26 02:43:44;;;;;;;20.00;10.60;;;9.50;99.90;;;;;;5076699;28;20071;-55
2024/01/26 02:46:10;;;;;;;22.23;10.57;;;9.50;99.90;;;;;;5076342;28;20380;-56
2024/01/26 02:48:36;;;;;;;22.60;9.95;;;9.40;99.90;;;;;;5076504;28;20044;-55
2024/01/26 02:51:02;;;;;;;23.10;10.52;;;9.50;99.90;;;;;;5075519;28;20041;-55
2024/01/26 02:53:28;;;;;;;20.63;10.17;;;9.50;99.90;;;;;;5076690;28;20136;-55
2024/01/26 02:55:53;;;;;;;22.83;9.67;;;9.50;99.90;;;;;;5076303;28;20480;-55
2024/01/26 02:58:19;;;;;;;22.20;10.43;;;9.50;99.90;;;;;;5076173;28;20408;-55
2024/01/26 03:00:45;;;;;;;19.07;9.60;;;9.50;99.90;;;;;;5076042;28;20048;-55
2024/01/26 03:03:11;;;;;;;20.05;9.32;;;9.50;99.90;;;;;;5058747;28;20052;-54
2024/01/26 03:05:37;;;;;;;25.07;10.93;;;9.50;99.90;;;;;;5075131;28;20044;-55
2024/01/26 03:08:02;;;;;;;21.17;9.63;;;9.50;99.90;;;;;;5076157;28;20044;-55
2024/01/26 03:10:28;;;;;;;20.27;9.43;;;9.50;99.90;;;;;;5076326;28;20063;-55
2024/01/26 03:12:55;;;;;;;19.60;10.13;;;9.50;99.90;;;;;;5076124;28;20090;-55
2024/01/26 03:15:20;;;;;;;18.38;9.88;;;9.50;99.90;;;;;;5075829;28;20279;-56
2024/01/26 03:17:46;;;;;;;19.87;9.97;;;9.50;99.90;;;;;;5075984;28;20048;-55
2024/01/26 03:20:12;;;;;;;18.17;9.47;;;9.50;99.90;;;;;;5075893;28;20052;-55
2024/01/26 03:22:38;;;;;;;18.85;9.20;;;9.50;99.90;;;;;;5075921;28;20106;-55
2024/01/26 03:25:04;;;;;;;21.60;10.23;;;9.60;99.90;;;;;;5075903;28;20048;-55
2024/01/26 03:27:29;;;;;;;17.60;8.70;;;9.50;99.90;;;;;;5075541;28;20044;-55
2024/01/26 03:29:55;;;;;;;17.57;9.03;;;9.50;99.90;;;;;;5074526;28;20700;-56
2024/01/26 03:32:21;;;;;;;17.17;8.70;;;9.60;99.90;;;;;;5075778;28;20080;-55
2024/01/26 03:34:46;;;;;;;17.63;8.67;;;9.60;99.90;;;;;;5076021;28;20106;-55
2024/01/26 03:37:12;;;;;;;19.03;9.03;;;9.60;99.90;;;;;;5075734;28;20139;-54
2024/01/26 03:39:38;;;;;;;17.00;8.40;;;9.60;99.90;;;;;;5075594;28;20044;-55
2024/01/26 03:42:05;;;;;;;18.20;9.03;;;9.60;99.90;;;;;;5075648;28;20365;-56
2024/01/26 03:44:31;;;;;;;19.45;8.57;;;9.60;99.90;;;;;;5075352;28;20048;-56
2024/01/26 03:46:57;;;;;;;17.27;7.87;;;9.60;99.90;;;;;;5074663;28;20114;-56
2024/01/26 03:49:22;;;;;;;17.43;8.30;;;9.60;99.90;;;;;;5074286;28;20506;-55
2024/01/26 03:51:48;;;;;;;19.20;9.30;;;9.60;99.90;;;;;;5074592;28;20048;-55
2024/01/26 03:54:13;;;;;;;16.80;7.97;;;9.60;99.90;;;;;;5075278;28;20055;-56
2024/01/26 03:56:39;;;;;;;18.50;8.70;;;9.60;99.90;;;;;;5075199;28;20040;-55
2024/01/26 03:59:05;;;;;;;15.82;7.65;;;9.60;99.90;;;;;;5075030;28;20349;-55
2024/01/26 04:01:31;;;;;;;17.03;7.93;;;9.60;99.90;;;;;;5075154;28;20052;-56
2024/01/26 04:03:56;;;;;;;19.37;8.60;;;9.60;99.90;;;;;;5075462;28;20041;-55
2024/01/26 04:06:23;;;;;;;17.20;8.20;;;9.60;99.90;;;;;;5075101;28;20071;-56
2024/01/26 04:08:48;;;;;;;17.00;8.10;;;9.70;99.90;;;;;;5074942;28;20076;-55
2024/01/26 04:11:14;;;;;;;15.07;7.03;;;9.70;99.90;;;;;;5074899;28;20129;-55
2024/01/26 04:13:40;;;;;;;17.37;8.20;;;9.70;99.90;;;;;;5074879;28;20040;-55
2024/01/26 04:16:07;;;;;;;17.40;7.20;;;9.70;99.90;;;;;;5075002;28;20053;-55
2024/01/26 04:18:33;;;;;;;17.85;8.18;;;9.70;99.90;;;;;;5073647;28;20480;-55
2024/01/26 04:20:58;;;;;;;14.37;6.83;;;9.70;99.90;;;;;;5090785;28;20067;-55
2024/01/26 04:23:24;;;;;;;14.90;6.63;;;9.70;99.90;;;;;;5073523;28;20102;-55
2024/01/26 04:25:50;;;;;;;15.80;7.73;;;9.70;99.90;;;;;;5074701;28;20040;-55
2024/01/26 04:28:15;;;;;;;16.53;7.30;;;9.80;99.90;;;;;;5074430;28;20446;-55
2024/01/26 04:30:43;;;;;;;20.67;7.83;;;9.70;99.90;;;;;;5073313;28;20084;-55
2024/01/26 04:33:09;;;;;;;15.48;7.55;;;9.80;99.90;;;;;;5074487;28;20098;-55
2024/01/26 04:35:34;;;;;;;16.93;8.23;;;9.80;99.90;;;;;;5074489;28;20392;-56
2024/01/26 04:38:00;;;;;;;16.10;7.88;;;9.80;99.90;;;;;;5074372;28;20051;-55
2024/01/26 04:40:26;;;;;;;16.10;6.80;;;9.80;99.90;;;;;;5074014;28;20052;-56
2024/01/26 04:42:52;;;;;;;18.57;8.90;;;9.80;99.90;;;;;;5074201;28;20407;-56
2024/01/26 04:45:17;;;;;;;15.97;8.13;;;9.80;99.90;;;;;;5073120;28;20480;-56
2024/01/26 04:47:43;;;;;;;20.37;9.33;;;9.80;99.90;;;;;;5074119;28;20040;-57
2024/01/26 04:50:09;;;;;;;19.20;9.40;;;9.90;99.90;;;;;;5074404;28;20052;-56
2024/01/26 04:52:35;;;;;;;18.23;8.68;;;9.90;99.90;;;;;;5056591;28;20052;-56
2024/01/26 04:55:01;;;;;;;18.30;9.40;;;9.90;99.90;;;;;;5074147;28;20408;-56
2024/01/26 04:57:26;;;;;;;19.80;8.73;;;9.90;99.90;;;;;;5074035;28;20119;-56
2024/01/26 04:59:52;;;;;;;17.23;8.90;;;9.90;99.90;;;;;;5074057;28;20094;-56
2024/01/26 05:02:17;;;;;;;17.70;8.63;;;9.90;99.90;;;;;;5074249;28;20044;-56
2024/01/26 05:04:43;;;;;;;17.50;8.80;;;10.00;99.90;;;;;;5073991;28;20048;-56
2024/01/26 05:07:09;;;;;;;16.53;8.00;;;10.00;99.90;;;;;;5072749;28;20098;-56
2024/01/26 05:09:34;;;;;;;17.83;8.13;;;10.00;99.90;;;;;;5073836;28;20036;-56
2024/01/26 05:12:00;;;;;;;16.07;8.10;;;10.00;99.90;;;;;;5073779;28;20040;-56
2024/01/26 05:14:26;;;;;;;17.70;8.00;;;10.10;99.90;;;;;;5073939;28;20108;-56
2024/01/26 05:16:52;;;;;;;15.43;7.63;;;10.00;99.90;;;;;;5072699;28;20135;-56
2024/01/26 05:19:17;;;;;;;16.87;7.90;;;10.10;99.90;;;;;;5072691;28;20052;-56
2024/01/26 05:21:43;;;;;;;17.37;8.63;;;10.10;99.90;;;;;;5073912;28;20040;-56
2024/01/26 05:24:09;;;;;;;15.57;7.63;;;10.10;99.90;;;;;;5073792;28;20059;-56
2024/01/26 05:26:38;;;;;;;15.90;7.85;;;10.10;99.90;;;;;;5073664;28;20044;-56
2024/01/26 05:29:06;;;;;;;18.05;8.30;;;10.20;99.90;;;;;;5074224;28;20048;-56
2024/01/26 05:31:33;;;;;;;16.50;7.47;;;10.20;99.90;;;;;;5073780;28;20143;-56
2024/01/26 05:34:00;;;;;;;15.73;6.85;;;10.20;99.90;;;;;;5073604;28;20055;-56
2024/01/26 05:36:25;;;;;;;15.48;7.55;;;10.20;99.90;;;;;;5073545;28;20040;-56
2024/01/26 05:38:51;;;;;;;13.30;7.33;;;10.20;99.90;;;;;;5073543;28;20484;-56
2024/01/26 05:41:16;;;;;;;15.67;7.07;;;10.30;99.90;;;;;;5072612;28;20040;-56
2024/01/26 05:43:42;;;;;;;16.73;8.40;;;10.30;99.90;;;;;;5073882;28;20484;-56
2024/01/26 05:46:08;;;;;;;17.50;7.30;;;10.30;99.90;;;;;;5073566;28;20052;-55
2024/01/26 05:48:33;;;;;;;15.23;6.97;;;10.30;99.90;;;;;;5073421;28;20045;-56
2024/01/26 05:50:59;;;;;;;13.10;6.83;;;10.30;99.90;;;;;;5073360;28;20056;-56
2024/01/26 05:53:25;;;;;;;12.63;6.50;;;10.30;99.90;;;;;;5076978;28;20044;-56
2024/01/26 05:55:50;;;;;;;14.97;7.43;;;10.30;99.90;;;;;;5077617;28;20109;-56
2024/01/26 05:58:16;;;;;;;13.27;7.10;;;10.30;99.90;;;;;;5077531;28;20044;-56
2024/01/26 06:00:42;;;;;;;12.57;6.15;;;10.30;99.90;;;;;;5076357;28;20124;-56
2024/01/26 06:03:08;;;;;;;13.10;6.60;;;10.30;99.90;;;;;;5077517;28;20123;-57
2024/01/26 06:05:34;;;;;;;13.43;6.70;;;10.30;99.90;;;;;;5076554;28;20440;-56
2024/01/26 06:08:00;;;;;;;14.15;6.55;;;10.30;99.90;;;;;;5077108;28;20416;-56
2024/01/26 06:10:25;;;;;;;14.87;7.03;;;10.30;99.90;;;;;;5077107;28;20044;-56
2024/01/26 06:12:51;;;;;;;13.77;7.33;;;10.30;99.90;;;;;;5077336;28;20585;-56
2024/01/26 06:15:17;;;;;;;12.40;7.07;;;10.30;99.90;;;;;;5077394;28;20055;-56
2024/01/26 06:17:43;;;;;;;13.73;6.80;;;10.40;99.90;;;;;;5077429;28;20084;-56
2024/01/26 06:20:11;;;;;;;15.20;7.50;;;10.40;99.90;;;;;;5076975;28;20045;-56
2024/01/26 06:22:37;;;;;;;14.50;7.13;;;10.40;99.90;;;;;;5076865;28;20127;-56
2024/01/26 06:25:03;;;;;;;14.18;7.18;;;10.40;99.90;;;;;;5076840;28;20086;-55
2024/01/26 06:27:28;;;;;;;13.55;6.95;;;10.40;99.90;;;;;;5076863;28;20037;-56
2024/01/26 06:29:54;;;;;;;14.60;7.60;;;10.40;99.90;;;;;;5075879;28;20049;-54
2024/01/26 06:32:20;;;;;;;12.30;6.83;;;10.40;99.90;;;;;;5076977;28;20060;-55
2024/01/26 06:34:46;;;;;;;15.00;7.47;;;10.40;99.90;;;;;;5076883;28;20084;-54
2024/01/26 06:37:12;;;;;;;11.68;6.70;;;10.40;99.90;;;;;;5076764;28;20109;-54
2024/01/26 06:39:38;;;;;;;14.63;7.57;;;10.50;99.90;;;;;;5076549;28;20048;-54
2024/01/26 06:42:04;;;;;;;13.93;7.60;;;10.40;99.90;;;;;;5075765;28;20434;-54
2024/01/26 06:44:29;;;;;;;13.55;7.53;;;10.50;99.90;;;;;;5077058;28;20045;-55
2024/01/26 06:46:55;;;;;;;12.77;6.27;;;10.50;99.90;;;;;;5076520;28;20410;-54
2024/01/26 06:49:21;;;;;;;13.40;7.23;;;10.60;99.90;;;;;;5076662;28;20048;-55
2024/01/26 06:51:46;;;;;;;13.63;6.97;;;10.60;99.90;;;;;;5076516;28;20510;-53
2024/01/26 06:54:12;;;;;;;12.20;6.27;;;10.60;99.90;;;;;;5076442;28;20127;-55
2024/01/26 06:56:38;;;;;;;13.30;6.90;;;10.60;99.90;;;;;;5076721;28;20052;-54
2024/01/26 06:59:03;;;;;;;11.67;6.20;;;10.60;99.90;;;;;;5076388;28;20480;-54
2024/01/26 07:01:29;;;;;;;11.77;5.77;;;10.60;99.90;;;;;;5076251;28;20594;-55
2024/01/26 07:03:55;;;;;;;11.97;6.60;;;10.60;99.90;;;;;;5075961;28;20048;-54
2024/01/26 07:06:20;;;;;;;13.87;6.07;;;10.60;99.90;;;;;;5076128;28;20044;-54
2024/01/26 07:08:46;;;;;;;11.87;6.13;;;10.60;99.90;;;;;;5075924;28;20044;-52
2024/01/26 07:11:13;;;;;;;11.40;6.13;;;10.60;99.90;;;;;;5076626;28;20471;-53
2024/01/26 07:13:39;;;;;;;10.77;5.00;;;10.60;99.90;;;;;;5076174;28;20091;-53
2024/01/26 07:16:05;;;;;;;9.57;5.50;;;10.60;99.90;;;;;;5076393;28;20080;-52
2024/01/26 07:18:32;;;;;;;10.75;4.88;;;10.60;99.90;;;;;;5076038;28;20462;-54
2024/01/26 07:20:58;;;;;;;9.63;4.75;;;10.70;99.90;;;;;;5076030;28;20071;-54
2024/01/26 07:23:24;;;;;;;8.57;4.40;;;10.70;99.90;;;;;;5075925;28;20487;-55
2024/01/26 07:25:49;;;;;;;9.37;5.00;;;10.70;99.90;;;;;;5075998;28;20076;-55
2024/01/26 07:28:15;;;;;;;8.50;4.47;;;10.70;99.90;;;;;;5075856;28;20044;-56
2024/01/26 07:30:40;;;;;;;7.60;4.10;;;10.70;99.90;;;;;;5075537;28;20053;-54
2024/01/26 07:33:06;;;;;;;8.10;4.10;;;10.70;99.90;;;;;;5075682;28;20095;-54
2024/01/26 07:35:32;;;;;;;8.17;4.40;;;10.70;99.90;;;;;;5074897;28;20102;-55
2024/01/26 07:37:58;;;;;;;8.10;3.93;;;10.70;99.90;;;;;;5075592;28;20055;-55
2024/01/26 07:40:23;;;;;;;7.87;3.73;;;10.70;99.90;;;;;;5075606;28;20045;-55
2024/01/26 07:42:49;;;;;;;7.43;3.67;;;10.80;99.90;;;;;;5075821;28;20041;-54
2024/01/26 07:45:15;;;;;;;8.57;3.20;;;10.80;99.90;;;;;;5075420;28;20116;-54
2024/01/26 07:47:40;;;;;;;7.57;3.90;;;10.80;99.90;;;;;;5074442;28;20044;-56
2024/01/26 07:50:06;;;;;;;7.87;3.70;;;10.80;99.90;;;;;;5075700;28;20048;-54
2024/01/26 07:52:32;;;;;;;8.88;3.85;;;10.80;99.90;;;;;;5075289;28;20174;-52
2024/01/26 07:54:57;;;;;;;7.33;3.77;;;10.80;99.90;;;;;;5075155;28;20127;-54
2024/01/26 07:57:25;;;;;;;7.47;3.70;;;10.90;99.90;;;;;;5075343;28;20123;-53
2024/01/26 07:59:51;;;;;;;7.95;3.90;;;10.90;99.90;;;;;;5075275;28;20055;-55
2024/01/26 08:02:16;;;;;;;7.70;3.53;;;10.90;99.90;;;;;;5075372;28;20045;-51
2024/01/26 08:04:42;;;;;;;7.07;4.00;;;10.90;99.90;;;;;;5075002;28;20049;-55
2024/01/26 08:07:08;;;;;;;5.93;2.70;;;10.90;99.90;;;;;;5074955;28;20047;-54
2024/01/26 08:09:34;;;;;;;6.27;3.27;;;10.90;99.90;;;;;;5074886;28;20052;-54
2024/01/26 08:12:00;;;;;;;7.85;3.08;;;10.90;99.90;;;;;;5075058;28;20123;-55
2024/01/26 08:14:26;;;;;;;6.93;3.20;;;10.90;99.90;;;;;;5074368;28;20106;-55
2024/01/26 08:16:52;;;;;;;5.93;3.00;;;10.90;99.90;;;;;;5074704;28;20059;-55
2024/01/26 08:19:17;;;;;;;7.57;2.85;;;10.90;99.90;;;;;;5074735;28;20080;-54
2024/01/26 08:21:43;;;;;;;6.87;2.77;;;10.90;99.90;;;;;;5074630;28;20045;-54
2024/01/26 08:24:09;;;;;;;5.70;2.57;;;10.90;99.90;;;;;;5074449;28;20052;-55
2024/01/26 08:26:35;;;;;;;5.33;2.23;;;10.90;99.90;;;;;;5074824;28;20052;-54
2024/01/26 08:29:01;;;;;;;4.13;1.85;;;10.90;99.90;;;;;;5074656;28;20131;-53
2024/01/26 08:31:27;;;;;;;3.70;1.52;;;10.90;99.90;;;;;;5074376;28;20095;-54
2024/01/26 08:33:53;;;;;;;3.80;1.67;;;10.90;99.90;;;;;;5074672;28;20055;-55
2024/01/26 08:36:19;;;;;;;4.95;1.88;;;10.90;99.90;;;;;;5074529;28;20128;-54
2024/01/26 08:38:45;;;;;;;4.53;1.50;;;10.90;99.90;;;;;;5074433;28;20135;-53
2024/01/26 08:41:11;;;;;;;4.03;1.43;;;10.90;99.90;;;;;;5073541;28;20047;-54
2024/01/26 08:43:36;;;;;;;4.43;1.43;;;10.90;99.90;;;;;;5074427;28;20048;-53
2024/01/26 08:46:02;;;;;;;3.30;1.40;;;10.90;99.90;;;;;;5073374;28;20086;-53
2024/01/26 08:48:28;;;;;;;3.63;1.50;;;10.90;99.90;;;;;;5072990;28;20090;-53
2024/01/26 08:50:54;;;;;;;5.20;2.10;;;10.90;99.90;;;;;;5074297;28;20411;-53
2024/01/26 08:53:19;;;;;;;6.80;2.60;;;10.90;99.90;;;;;;5074107;28;20052;-53
2024/01/26 08:55:46;;;;;;;6.90;2.53;;;10.90;99.90;;;;;;5074375;28;20055;-52
2024/01/26 08:58:12;;;;;;;6.80;2.20;;;10.90;99.90;;;;;;5074086;28;20137;-51
2024/01/26 09:00:37;;;;;;;9.27;2.90;;;10.90;99.90;;;;;;5073179;28;20094;-54
2024/01/26 09:03:04;;;;;;;6.23;2.50;;;10.90;99.90;;;;;;5074097;28;20158;-55
2024/01/26 09:05:30;;;;;;;7.85;2.75;;;10.90;99.90;;;;;;5073877;28;20045;-54
2024/01/26 09:07:56;;;;;;;8.07;2.70;;;10.90;99.90;;;;;;5072720;28;20070;-54
2024/01/26 09:10:24;;;;;;;8.45;2.55;;;10.90;99.90;;;;;;5073979;28;20048;-54
2024/01/26 09:12:50;;;;;;;8.30;2.50;;;10.80;99.90;;;;;;5073989;28;20048;-50
2024/01/26 09:15:16;;;;;;;6.22;2.30;;;10.80;99.90;;;;;;5072959;28;20068;-53
2024/01/26 09:17:41;;;;;;;5.30;1.50;;;10.80;99.90;;;;;;5073950;28;20399;-50
2024/01/26 09:20:07;;;;;;;7.93;1.20;;;10.80;99.90;;;;;;5073691;28;20617;-51
2024/01/26 09:22:33;;;;;;;1.70;0.50;;;10.80;99.90;;;;;;5073543;28;20447;-51
2024/01/26 09:24:59;;;;;;;1.63;0.30;;;10.60;99.90;;;;;;5074058;28;20055;-50
2024/01/26 09:27:24;;;;;;;3.17;0.30;;;10.30;99.90;;;;;;5072693;28;20472;-49
2024/01/26 09:29:50;;;;;;;2.30;0.50;;;10.10;99.90;;;;;;5073536;28;20061;-49
2024/01/26 09:32:16;;;;;;;1.97;0.40;;;10.00;99.90;;;;;;5073905;28;20067;-51
2024/01/26 09:34:41;;;;;;;2.60;1.07;;;9.90;99.90;;;;;;5073586;28;20044;-49
2024/01/26 09:37:07;;;;;;;2.63;0.40;;;9.80;99.90;;;;;;5073358;28;20040;-49
2024/01/26 09:39:33;;;;;;;3.07;0.20;;;9.70;99.90;;;;;;5073729;28;20179;-49
2024/01/26 09:41:59;;;;;;;1.80;0.30;;;9.70;99.90;;;;;;5073645;28;20476;-53
2024/01/26 09:44:25;;;;;;;1.75;0.47;;;9.60;99.90;;;;;;5073780;28;20105;-53
2024/01/26 09:46:51;;;;;;;3.60;0.85;;;9.60;99.90;;;;;;5073463;28;20435;-50
2024/01/26 09:49:17;;;;;;;4.40;0.65;;;9.50;99.90;;;;;;5073392;28;20083;-50
2024/01/26 09:51:43;;;;;;;4.15;0.82;;;9.50;99.90;;;;;;5073239;28;20040;-50
2024/01/26 09:54:11;;;;;;;3.13;0.90;;;9.50;99.90;;;;;;5073513;28;20395;-52
2024/01/26 09:56:39;;;;;;;6.57;0.70;;;9.40;99.90;;;;;;5073463;28;20436;-51
2024/01/26 09:59:08;;;;;;;6.28;0.63;;;9.40;99.90;;;;;;5073435;28;20076;-51
2024/01/26 10:01:34;;;;;;;8.77;1.33;;;9.30;99.90;;;;;;5073479;28;20052;-53
2024/01/26 10:04:01;;;;;;;9.40;1.08;;;9.30;99.90;;;;;;5072213;28;20045;-53
2024/01/26 10:06:27;;;;;;;10.95;1.15;;;9.30;99.90;;;;;;5073243;28;20127;-53
2024/01/26 10:08:52;;;;;;;6.37;0.80;;;9.20;99.90;;;;;;5073234;28;20132;-52
2024/01/26 10:11:18;;;;;;;5.53;0.80;;;9.20;99.90;;;;;;5073300;28;20040;-53
2024/01/26 10:13:44;;;;;;;12.43;0.80;;;9.20;99.90;;;;;;5073336;28;20048;-52
2024/01/26 10:16:12;;;;;;;5.63;1.50;;;9.10;99.90;;;;;;5073293;28;20055;-53
2024/01/26 10:18:42;;;;;;;8.52;1.45;;;9.00;99.90;;;;;;5073134;28;20043;-51
2024/01/26 10:21:08;;;;;;;11.10;1.02;;;9.00;99.90;;;;;;5073236;28;20127;-50
2024/01/26 10:23:34;;;;;;;12.07;1.58;;;9.00;99.90;;;;;;5073271;28;20492;-50
2024/01/26 10:26:00;;;;;;;7.93;0.97;;;8.90;99.90;;;;;;5072035;28;20045;-50
2024/01/26 10:28:25;;;;;;;6.07;0.97;;;8.90;99.90;;;;;;5073020;28;20045;-49
2024/01/26 10:30:51;;;;;;;5.97;1.67;;;8.90;99.90;;;;;;5073174;28;20067;-49
2024/01/26 10:33:18;;;;;;;9.40;1.17;;;8.80;99.90;;;;;;5072929;28;20115;-53
2024/01/26 10:35:48;;;;;;;6.82;1.30;;;8.80;99.90;;;;;;5073111;28;20132;-51
2024/01/26 10:38:14;;;;;;;9.48;1.58;;;8.80;99.90;;;;;;5074572;28;20434;-53
2024/01/26 10:40:44;;;;;;;8.95;1.20;;;8.70;99.90;;;;;;5076970;28;20036;-49
2024/01/26 10:43:15;;;;;;;8.10;0.95;;;8.70;99.90;;;;;;5076863;28;20113;-53
2024/01/26 10:45:42;;;;;;;7.88;1.10;;;8.70;99.90;;;;;;5076651;28;20045;-50
2024/01/26 10:48:10;;;;;;;8.95;1.33;;;8.70;99.90;;;;;;5076348;28;20048;-52
2024/01/26 10:50:40;;;;;;;4.53;1.20;;;8.70;99.90;;;;;;5075381;28;20045;-52
2024/01/26 10:53:07;;;;;;;8.32;0.95;;;8.70;99.90;;;;;;5076866;28;20044;-49
2024/01/26 10:55:35;;;;;;;7.57;1.45;;;8.70;99.90;;;;;;5076362;28;20407;-49
2024/01/26 10:58:02;;;;;;;9.35;0.85;;;8.70;99.90;;;;;;5076303;28;20047;-51
2024/01/26 11:00:27;;;;;;;;;;;8.70;99.90;;;;;;5076710;28;20048;-52
2024/01/26 11:02:54;;;;;;;8.20;1.23;;;8.70;99.90;;;;;;5076390;28;19921;-53
2024/01/26 11:05:20;;;;;;;7.07;1.38;;;8.70;99.90;;;;;;5076383;28;20376;-55
2024/01/26 11:07:47;;;;;;;7.10;1.10;;;8.70;99.90;;;;;;5076206;28;20049;-54
2024/01/26 11:10:25;;;;;;;9.02;1.27;;;8.70;99.90;;;;;;5076264;28;20045;-53
2024/01/26 11:13:02;;;;;;;9.95;1.20;;;8.70;99.90;;;;;;5074970;28;20078;-53
2024/01/26 11:15:29;;;;;;;9.30;1.77;;;8.80;99.90;;;;;;5076519;28;20043;-53
2024/01/26 11:17:56;;;;;;;12.63;1.40;;;8.80;99.90;;;;;;5076208;28;20052;-51
2024/01/26 11:20:25;;;;;;;6.38;1.23;;;8.80;99.90;;;;;;5076158;28;20049;-53
2024/01/26 11:23:11;;;;;;;7.35;0.95;;;8.80;99.90;;;;;;5074878;28;20056;-50
2024/01/26 11:25:47;;;;;;;5.22;0.60;;;8.80;99.90;;;;;;5075673;28;20044;-52
2024/01/26 11:28:23;;;;;;;9.80;1.13;;;8.80;99.90;;;;;;5075835;28;20476;-52
2024/01/26 11:30:53;;;;;;;9.57;1.20;;;8.80;99.90;;;;;;5075259;28;20052;-53
2024/01/26 11:33:23;;;;;;;11.45;1.65;;;8.80;99.90;;;;;;5075822;28;20055;-49
2024/01/26 11:35:49;;;;;;;9.98;1.08;;;8.80;99.90;;;;;;5091693;28;20048;-53
2024/01/26 11:38:15;;;;;;;8.07;1.23;;;8.80;99.90;;;;;;5075691;28;20407;-54
2024/01/26 11:40:41;;;;;;;6.57;1.20;;;8.80;99.90;;;;;;5075710;28;20051;-54
2024/01/26 11:43:07;;;;;;;10.83;1.40;;;8.80;99.90;;;;;;5075634;28;20044;-55
2024/01/26 11:45:44;;;;;;;12.50;1.45;;;8.80;99.90;;;;;;5075458;28;20055;-55
2024/01/26 11:48:11;;;;;;;5.45;1.00;;;8.80;99.90;;;;;;5075547;28;20040;-54
2024/01/26 11:50:37;;;;;;;;;;;8.80;99.90;;;;;;5074672;28;20055;-53
2024/01/26 11:53:04;;;;;;;8.07;1.55;;;8.80;99.90;;;;;;5075466;28;19920;-51
2024/01/26 11:55:29;;;;;;;;;;;8.80;99.90;;;;;;5075726;28;20491;-49
2024/01/26 11:57:56;;;;;;;9.45;1.35;;;8.80;99.90;;;;;;5075257;28;19946;-50
2024/01/26 12:00:22;;;;;;;10.88;1.48;;;8.70;99.90;;;;;;5075215;28;20051;-50
2024/01/26 12:02:48;;;;;;;12.60;2.67;;;8.70;99.90;;;;;;5075150;28;20131;-54
2024/01/26 12:05:16;;;;;;;8.18;1.63;;;8.60;99.90;;;;;;5075052;28;20127;-54
2024/01/26 12:07:41;;;;;;;12.00;1.70;;;8.60;99.90;;;;;;5075459;28;20044;-54
2024/01/26 12:10:09;;;;;;;7.80;1.43;;;8.50;99.90;;;;;;5074947;28;20044;-50
2024/01/26 12:12:35;;;;;;;11.35;1.45;;;8.50;99.90;;;;;;5075019;28;20048;-54
2024/01/26 12:15:03;;;;;;;11.95;2.13;;;8.40;99.90;;;;;;5074751;28;20045;-49
2024/01/26 12:17:28;;;;;;;12.90;2.13;;;8.40;99.90;;;;;;5074697;28;20041;-54
2024/01/26 12:19:55;;;;;;;9.17;1.53;;;8.30;99.90;;;;;;5074808;28;20121;-54
2024/01/26 12:22:20;;;;;;;19.27;5.40;;;8.30;99.90;;;;;;5074794;28;20051;-50
2024/01/26 12:24:46;;;;;;;10.27;2.33;;;8.20;99.90;;;;;;5074830;28;20044;-52
2024/01/26 12:27:12;;;;;;;13.83;2.17;;;8.10;99.90;;;;;;5074592;28;20477;-54
2024/01/26 12:29:37;;;;;;;9.10;2.20;;;8.00;99.90;;;;;;5074844;28;20462;-49
2024/01/26 12:32:10;;;;;;;7.47;1.37;;;8.00;99.90;;;;;;5074519;28;20048;-50
2024/01/26 12:34:40;;;;;;;9.07;1.90;;;8.00;99.90;;;;;;5074509;28;20088;-50
2024/01/26 12:37:10;;;;;;;8.07;1.95;;;7.90;99.90;;;;;;5074512;28;20518;-50
2024/01/26 12:39:35;;;;;;;9.15;2.08;;;7.80;99.90;;;;;;5074654;28;20052;-50
2024/01/26 12:42:01;;;;;;;10.90;1.73;;;7.80;99.90;;;;;;5074508;28;20117;-50